ADDS METAR Data INFO
IDs: Format: Raw Decoded Include TAF

Data at: 0213 UTC 18 Jan 2018

KATS 180155Z AUTO 16006KT 10SM CLR M00/M16 A3035 RMK AO2
KATS 180135Z AUTO 15008KT 10SM CLR 00/M16 A3035 RMK AO2
KATS 180115Z AUTO 15008KT 10SM CLR 00/M16 A3035 RMK AO2
KATS 180055Z AUTO 15008KT 10SM CLR 01/M15 A3034 RMK AO2
KATS 180035Z AUTO 16009KT 10SM CLR 01/M15 A3034 RMK AO2
KATS 180015Z AUTO 16010KT 10SM CLR 02/M15 A3033 RMK AO2
KATS 172355Z AUTO 16013KT 10SM CLR 02/M15 A3034 RMK AO2
KATS 172335Z AUTO 15015KT 10SM CLR 03/M14 A3034 RMK AO2
KATS 172315Z AUTO 15014KT 10SM CLR 03/M14 A3034 RMK AO2
KATS 172255Z AUTO 15012KT 10SM CLR 03/M14 A3034 RMK AO2
KATS 172235Z AUTO 16012KT 10SM CLR 04/M13 A3034 RMK AO2
KATS 172215Z AUTO 14013KT 10SM CLR 04/M14 A3034 RMK AO2
KATS 172155Z AUTO 15011KT 10SM CLR 04/M13 A3034 RMK AO2
KATS 172135Z AUTO 14011KT 10SM CLR 04/M12 A3035 RMK AO2
KATS 172115Z AUTO 14008G13KT 10SM CLR 04/M12 A3035 RMK AO2
KATS 172055Z AUTO 15007G14KT 10SM CLR 04/M12 A3036 RMK AO2
KATS 172035Z AUTO 15009KT 10SM CLR 04/M12 A3036 RMK AO2
KATS 172015Z AUTO 17009KT 10SM CLR 04/M12 A3037 RMK AO2
KATS 171955Z AUTO 14010G16KT 10SM CLR 04/M13 A3038 RMK AO2
KATS 171935Z AUTO 15011KT 10SM CLR 03/M13 A3039 RMK AO2
KATS 171915Z AUTO 15011G16KT 10SM CLR 03/M13 A3040 RMK AO2
KATS 171855Z AUTO 14011G17KT 10SM CLR 02/M13 A3041 RMK AO2
KATS 171835Z AUTO 15013KT 10SM CLR 02/M15 A3042 RMK AO2
KATS 171815Z AUTO 14013KT 10SM CLR 02/M15 A3043 RMK AO2
KATS 171755Z AUTO 15012KT 10SM CLR 01/M16 A3044 RMK AO2
KATS 171735Z AUTO 15013G19KT 10SM CLR 01/M16 A3045 RMK AO2
KATS 171715Z AUTO 16014KT 10SM CLR 00/M17 A3046 RMK AO2
KATS 171655Z AUTO 15017KT 10SM CLR M00/M17 A3046 RMK AO2
KATS 171635Z AUTO 15015KT 10SM CLR M01/M17 A3046 RMK AO2
KATS 171615Z AUTO 16014KT 10SM CLR M02/M17 A3046 RMK AO2
KATS 171555Z AUTO 15012KT 10SM CLR M03/M17 A3046 RMK AO2
KATS 171535Z AUTO 15010KT 10SM CLR M05/M17 A3046 RMK AO2
KATS 171515Z AUTO 15007KT 10SM CLR M06/M18 A3046 RMK AO2
KATS 171455Z AUTO 18004KT 10SM CLR M07/M18 A3046 RMK AO2
KATS 171435Z AUTO 18003KT 10SM CLR M10/M19 A3045 RMK AO2
KATS 171415Z AUTO 19005KT 10SM CLR M11/M20 A3045 RMK AO2
KATS 171355Z AUTO 21004KT 10SM CLR M11/M20 A3046 RMK AO2
KATS 171335Z AUTO 24005KT 10SM CLR M11/M20 A3046 RMK AO2
KATS 171315Z AUTO 19006KT 10SM CLR M11/M20 A3046 RMK AO2
KATS 171255Z AUTO 21005KT 10SM CLR M10/M20 A3046 RMK AO2
KATS 171235Z AUTO 21004KT 10SM CLR M11/M21 A3046 RMK AO2
KATS 171215Z AUTO 19003KT 10SM CLR M11/M21 A3046 RMK AO2
KATS 171155Z AUTO 20003KT 10SM CLR M11/M21 A3046 RMK AO2
KATS 171135Z AUTO 00000KT 10SM CLR M11/M21 A3047 RMK AO2
KATS 171115Z AUTO 00000KT 10SM CLR M11/M21 A3047 RMK AO2
KATS 171055Z AUTO 00000KT 10SM CLR M11/M21 A3048 RMK AO2
KATS 171035Z AUTO 00000KT 10SM CLR M11/M21 A3048 RMK AO2
KATS 171015Z AUTO 00000KT 10SM CLR M11/M21 A3049 RMK AO2
KATS 170955Z AUTO 32003KT 10SM CLR M10/M21 A3049 RMK AO2
KATS 170935Z AUTO 00000KT 10SM CLR M10/M20 A3050 RMK AO2
KATS 170915Z AUTO 00000KT 10SM CLR M11/M21 A3050 RMK AO2
KATS 170855Z AUTO 20005KT 10SM CLR M10/M20 A3051 RMK AO2
KATS 170835Z AUTO 23006KT 10SM CLR M09/M20 A3051 RMK AO2
KATS 170815Z AUTO 23008KT 10SM CLR M09/M20 A3052 RMK AO2
KATS 170755Z AUTO 22007KT 10SM CLR M09/M20 A3052 RMK AO2
KATS 170735Z AUTO 22006KT 10SM CLR M09/M20 A3052 RMK AO2
KATS 170715Z AUTO 21006KT 10SM CLR M09/M20 A3052 RMK AO2
KATS 170655Z AUTO 21007KT 10SM CLR M08/M19 A3053 RMK AO2
KATS 170635Z AUTO 21008KT 10SM CLR M08/M19 A3053 RMK AO2
KATS 170615Z AUTO 21006KT 10SM CLR M08/M19 A3054 RMK AO2
KATS 170555Z AUTO 20007KT 10SM CLR M08/M19 A3055 RMK AO2
KATS 170535Z AUTO 20007KT 10SM CLR M08/M19 A3055 RMK AO2
KATS 170515Z AUTO 20006KT 10SM CLR M08/M19 A3056 RMK AO2
KATS 170455Z AUTO 19006KT 10SM CLR M08/M19 A3056 RMK AO2
KATS 170435Z AUTO 20005KT 10SM CLR M07/M19 A3055 RMK AO2
KATS 170415Z AUTO 19006KT 10SM CLR M07/M19 A3055 RMK AO2
KATS 170355Z AUTO 19006KT 10SM CLR M07/M19 A3055 RMK AO2
KATS 170335Z AUTO 19007KT 10SM CLR M07/M19 A3054 RMK AO2
KATS 170315Z AUTO 18007KT 10SM CLR M06/M19 A3054 RMK AO2
KATS 170255Z AUTO 18007KT 10SM CLR M06/M18 A3054 RMK AO2
KATS 170235Z AUTO 17006KT 10SM CLR M05/M18 A3054 RMK AO2
KATS 170215Z AUTO 18008KT 10SM CLR M04/M18 A3054 RMK AO2
KATS 170155Z AUTO 17008KT 10SM CLR M04/M18 A3053 RMK AO2
KATS 170135Z AUTO 16008KT 10SM CLR M04/M18 A3053 RMK AO2
KATS 170115Z AUTO 15007KT 10SM CLR M03/M18 A3053 RMK AO2
KATS 170055Z AUTO 15008KT 10SM CLR M03/M18 A3053 RMK AO2
KATS 170035Z AUTO 16008KT 10SM CLR M02/M18 A3052 RMK AO2
KATS 170015Z AUTO 16010KT 10SM CLR M01/M17 A3052 RMK AO2
KATS 162355Z AUTO 15012KT 10SM CLR M01/M17 A3052 RMK AO2
KATS 162335Z AUTO 17011KT 10SM CLR M00/M17 A3051 RMK AO2
KATS 162315Z AUTO 16010KT 10SM CLR 00/M17 A3051 RMK AO2
KATS 162255Z AUTO 15012KT 10SM CLR 01/M17 A3051 RMK AO2
KATS 162235Z AUTO 16009G15KT 10SM CLR 01/M17 A3052 RMK AO2
KATS 162215Z AUTO 13009KT 10SM CLR 01/M16 A3052 RMK AO2
KATS 162155Z AUTO 13008KT 10SM CLR 01/M17 A3053 RMK AO2
KATS 162135Z AUTO 15007G16KT 10SM CLR 01/M17 A3053 RMK AO2
KATS 162115Z AUTO 13007KT 10SM CLR 01/M17 A3054 RMK AO2
KATS 162055Z AUTO 16010KT 10SM CLR 00/M17 A3056 RMK AO2
KATS 162035Z AUTO 17010KT 10SM CLR 00/M16 A3056 RMK AO2
KATS 162015Z AUTO 14007G13KT 10SM CLR 01/M16 A3057 RMK AO2
KATS 161955Z AUTO 00000G10KT 10SM CLR M00/M16 A3058 RMK AO2
KATS 161935Z AUTO 14003G13KT 10SM CLR M00/M16 A3059 RMK AO2
KATS 161915Z AUTO 16003G12KT 10SM CLR M00/M16 A3060 RMK AO2
KATS 161855Z AUTO VRB06KT 10SM CLR M01/M16 A3062 RMK AO2
KATS 161835Z AUTO 17007KT 10SM CLR M01/M16 A3064 RMK AO2
KATS 161815Z AUTO VRB04G11KT 10SM CLR M01/M16 A3065 RMK AO2
KATS 161755Z AUTO 13008KT 10SM CLR M01/M16 A3066 RMK AO2
KATS 161735Z AUTO 14008KT 10SM CLR M02/M16 A3068 RMK AO2
KATS 161715Z AUTO 13008KT 10SM CLR M02/M16 A3068 RMK AO2
KATS 161655Z AUTO 14010KT 10SM CLR M03/M15 A3068 RMK AO2
KATS 161635Z AUTO 14011KT 10SM CLR M03/M15 A3069 RMK AO2
KATS 161615Z AUTO 16009KT 10SM CLR M03/M15 A3068 RMK AO2
KATS 161555Z AUTO 17010KT 10SM CLR M03/M15 A3068 RMK AO2
KATS 161535Z AUTO 16011KT 10SM CLR M04/M15 A3067 RMK AO2
KATS 161515Z AUTO 17010KT 10SM CLR M04/M15 A3066 RMK AO2
KATS 161455Z AUTO 16007KT 10SM CLR M05/M15 A3066 RMK AO2
KATS 161435Z AUTO 19008KT 10SM CLR M06/M16 A3065 RMK AO2
KATS 161415Z AUTO 19007KT 10SM CLR M06/M16 A3064 RMK AO2